Time;durP1;ratioP1;P1;durP2;ratioP2;P2;SDS_P1;SDS_P2;PMS_P1;PMS_P2;Temp;Humidity;BMP_temperature;BMP_pressure;BME280_temperature;BME280_humidity;BME280_pressure;Samples;Min_cycle;Max_cycle;Signal;HPM_P1;HPM_P2
2024/02/29 00:00:35;;;;;;;;;7.33;7.00;;;;;;;;5072088;27;45726;-46
2024/02/29 00:03:00;;;;;;;;;8.67;6.67;;;;;;;;5075196;27;46083;-50
2024/02/29 00:05:25;;;;;;;;;11.33;8.33;;;;;;;;5080801;27;45348;-49
2024/02/29 00:07:50;;;;;;;;;8.00;7.00;;;;;;;;5082762;27;45496;-50
2024/02/29 00:10:15;;;;;;;;;7.00;6.67;;;;;;;;5082563;27;45386;-49
2024/02/29 00:12:41;;;;;;;;;6.00;6.00;;;;;;;;5084370;27;46112;-48
2024/02/29 00:15:06;;;;;;;;;6.33;6.00;;;;;;;;5080608;27;45446;-48
2024/02/29 00:17:32;;;;;;;;;6.00;6.00;;;;;;;;5078947;27;45830;-47
2024/02/29 00:19:57;;;;;;;;;8.33;7.00;;;;;;;;5082567;27;45153;-48
2024/02/29 00:22:22;;;;;;;;;7.33;7.33;;;;;;;;5084209;27;47466;-47
2024/02/29 00:24:47;;;;;;;;;10.00;6.00;;;;;;;;5075930;27;45562;-48
2024/02/29 00:27:13;;;;;;;;;11.00;8.00;;;;;;;;5086051;27;45204;-47
2024/02/29 00:29:38;;;;;;;;;6.67;6.67;;;;;;;;5076671;27;45302;-46
2024/02/29 00:32:03;;;;;;;;;11.33;8.33;;;;;;;;5078371;27;46383;-48
2024/02/29 00:34:29;;;;;;;;;9.33;7.33;;;;;;;;5076245;27;45554;-48
2024/02/29 00:36:55;;;;;;;;;9.00;7.67;;;;;;;;5078878;27;45737;-49
2024/02/29 00:39:20;;;;;;;;;10.67;10.33;;;;;;;;5079583;27;45396;-49
2024/02/29 00:41:45;;;;;;;;;10.00;9.00;;;;;;;;5077049;27;46299;-51
2024/02/29 00:44:10;;;;;;;;;8.67;8.33;;;;;;;;5071846;27;45618;-50
2024/02/29 00:46:38;;;;;;;;;5.00;3.67;;;;;;;;5075811;27;45342;-50
2024/02/29 00:49:04;;;;;;;;;8.67;8.67;;;;;;;;5075924;27;45479;-47
2024/02/29 00:51:29;;;;;;;;;7.67;7.67;;;;;;;;5076188;27;45444;-48
2024/02/29 00:53:54;;;;;;;;;6.00;6.00;;;;;;;;5076133;27;45353;-48
2024/02/29 00:56:19;;;;;;;;;6.00;5.67;;;;;;;;5076082;27;45363;-49
2024/02/29 00:58:44;;;;;;;;;9.67;7.33;;;;;;;;5078299;27;45306;-46
2024/02/29 01:01:10;;;;;;;;;6.67;6.67;;;;;;;;5078840;27;46924;-49
2024/02/29 01:03:35;;;;;;;;;5.00;5.00;;;;;;;;5078390;27;45286;-50
2024/02/29 01:06:00;;;;;;;;;8.33;7.00;;;;;;;;5082273;27;45425;-48
2024/02/29 01:08:26;;;;;;;;;9.00;8.00;;;;;;;;5065214;27;45457;-47
2024/02/29 01:10:51;;;;;;;;;7.67;7.00;;;;;;;;5078566;27;46261;-48
2024/02/29 01:13:16;;;;;;;;;6.67;6.00;;;;;;;;5080445;27;45338;-47
2024/02/29 01:15:41;;;;;;;;;13.33;5.67;;;;;;;;5078613;27;45317;-49
2024/02/29 01:18:07;;;;;;;;;5.00;5.00;;;;;;;;5074003;27;45457;-49
2024/02/29 01:20:32;;;;;;;;;6.00;5.00;;;;;;;;5082383;27;46452;-46
2024/02/29 01:22:58;;;;;;;;;3.00;3.00;;;;;;;;5069481;27;45393;-48
2024/02/29 01:25:23;;;;;;;;;7.67;5.33;;;;;;;;5074113;27;45486;-47
2024/02/29 01:27:50;;;;;;;;;6.00;4.00;;;;;;;;5082828;27;45403;-50
2024/02/29 01:30:15;;;;;;;;;4.33;4.33;;;;;;;;5089689;27;47078;-50
2024/02/29 01:32:40;;;;;;;;;6.00;6.00;;;;;;;;5080695;27;45464;-47
2024/02/29 01:35:05;;;;;;;;;6.00;5.33;;;;;;;;5089515;27;45435;-48
2024/02/29 01:37:30;;;;;;;;;5.67;5.67;;;;;;;;5085430;27;45319;-47
2024/02/29 01:39:56;;;;;;;;;4.67;4.67;;;;;;;;5081161;27;46724;-49
2024/02/29 01:42:21;;;;;;;;;3.00;3.00;;;;;;;;5071211;27;46741;-49
2024/02/29 01:44:54;;;;;;;;;3.00;3.00;;;;;;;;5078246;27;45415;-49
2024/02/29 01:47:19;;;;;;;;;6.00;6.00;;;;;;;;5074347;28;45442;-48
2024/02/29 01:49:46;;;;;;;;;5.67;5.00;;;;;;;;5082526;27;45629;-47
2024/02/29 01:52:14;;;;;;;;;6.00;6.00;;;;;;;;5082383;27;45811;-49
2024/02/29 01:54:39;;;;;;;;;5.33;5.00;;;;;;;;5080118;27;45287;-49
2024/02/29 01:57:05;;;;;;;;;3.67;3.67;;;;;;;;5083753;27;45298;-47
2024/02/29 01:59:31;;;;;;;;;3.33;2.33;;;;;;;;5079985;27;45392;-46
2024/02/29 02:01:56;;;;;;;;;4.00;3.67;;;;;;;;5077714;27;45461;-50
2024/02/29 02:04:21;;;;;;;;;5.00;5.00;;;;;;;;5085502;27;45358;-49
2024/02/29 02:06:46;;;;;;;;;9.00;7.33;;;;;;;;5081984;27;45291;-48
2024/02/29 02:09:12;;;;;;;;;7.67;5.00;;;;;;;;5077635;27;45701;-46
2024/02/29 02:11:38;;;;;;;;;3.33;3.33;;;;;;;;5081089;27;45461;-47
2024/02/29 02:14:04;;;;;;;;;5.00;5.00;;;;;;;;5080448;27;45415;-50
2024/02/29 02:16:29;;;;;;;;;7.00;5.67;;;;;;;;5083142;27;45384;-49
2024/02/29 02:18:55;;;;;;;;;7.00;7.00;;;;;;;;5076863;27;46122;-47
2024/02/29 02:21:20;;;;;;;;;3.00;3.00;;;;;;;;5084120;27;45376;-49
2024/02/29 02:23:45;;;;;;;;;5.00;5.00;;;;;;;;5079344;27;45393;-47
2024/02/29 02:26:10;;;;;;;;;6.67;6.67;;;;;;;;5084215;27;45326;-47
2024/02/29 02:28:35;;;;;;;;;6.00;6.00;;;;;;;;5088829;27;45765;-46
2024/02/29 02:31:01;;;;;;;;;7.67;5.00;;;;;;;;5073229;27;45294;-50
2024/02/29 02:33:26;;;;;;;;;4.00;2.33;;;;;;;;5087299;27;45457;-46
2024/02/29 02:35:51;;;;;;;;;6.33;5.00;;;;;;;;5079964;27;45399;-50
2024/02/29 02:38:16;;;;;;;;;5.00;5.00;;;;;;;;5082384;27;47159;-47
2024/02/29 02:40:41;;;;;;;;;8.33;7.00;;;;;;;;5081260;27;45492;-46
2024/02/29 02:43:06;;;;;;;;;8.33;7.00;;;;;;;;5076699;27;45444;-50
2024/02/29 02:45:32;;;;;;;;;9.33;7.00;;;;;;;;5081369;27;45586;-47
2024/02/29 02:47:57;;;;;;;;;6.00;6.00;;;;;;;;5079938;27;45453;-47
2024/02/29 02:50:23;;;;;;;;;7.33;7.33;;;;;;;;5074963;27;45485;-48
2024/02/29 02:52:49;;;;;;;;;4.00;4.00;;;;;;;;5076996;27;45282;-49
2024/02/29 02:55:14;;;;;;;;;5.33;5.33;;;;;;;;5077914;27;45459;-49
2024/02/29 02:57:39;;;;;;;;;6.00;5.00;;;;;;;;5079567;27;45483;-48
2024/02/29 03:00:10;;;;;;;;;7.00;7.00;;;;;;;;5083339;27;45202;-48
2024/02/29 03:02:35;;;;;;;;;10.67;5.67;;;;;;;;5077249;27;45403;-49
2024/02/29 03:05:00;;;;;;;;;6.67;6.00;;;;;;;;5076700;27;45572;-48
2024/02/29 03:07:26;;;;;;;;;6.67;6.00;;;;;;;;5072499;27;45686;-51
2024/02/29 03:09:51;;;;;;;;;4.67;3.00;;;;;;;;5075977;27;45310;-50
2024/02/29 03:12:16;;;;;;;;;6.00;6.00;;;;;;;;5066406;27;46083;-48
2024/02/29 03:14:41;;;;;;;;;5.33;5.33;;;;;;;;5074197;27;45990;-51
2024/02/29 03:17:06;;;;;;;;;7.00;5.00;;;;;;;;5077067;27;46280;-48
2024/02/29 03:19:31;;;;;;;;;6.67;6.67;;;;;;;;5079967;27;45295;-47
2024/02/29 03:21:57;;;;;;;;;5.67;5.67;;;;;;;;5076434;27;45584;-50
2024/02/29 03:24:22;;;;;;;;;5.67;5.33;;;;;;;;5076980;27;45516;-48
2024/02/29 03:26:47;;;;;;;;;8.00;8.00;;;;;;;;5079760;27;46196;-46
2024/02/29 03:29:13;;;;;;;;;7.00;7.00;;;;;;;;5070391;27;45344;-48
2024/02/29 03:31:38;;;;;;;;;13.33;7.00;;;;;;;;5078987;27;45482;-46
2024/02/29 03:34:04;;;;;;;;;8.67;8.00;;;;;;;;5080547;27;45674;-47
2024/02/29 03:36:29;;;;;;;;;8.00;8.00;;;;;;;;5077261;27;45496;-46
2024/02/29 03:38:54;;;;;;;;;9.33;8.67;;;;;;;;5077744;27;45354;-46
2024/02/29 03:41:19;;;;;;;;;6.67;6.67;;;;;;;;5072436;27;45326;-48
2024/02/29 03:43:44;;;;;;;;;15.67;10.67;;;;;;;;5081726;27;45494;-50
2024/02/29 03:46:10;;;;;;;;;6.50;3.50;;;;;;;;5077440;27;45429;-46
2024/02/29 03:48:35;;;;;;;;;6.00;6.00;;;;;;;;5083537;27;45373;-49
2024/02/29 03:51:01;;;;;;;;;8.67;8.67;;;;;;;;5079585;27;45390;-48
2024/02/29 03:53:26;;;;;;;;;9.33;8.33;;;;;;;;5083990;27;45290;-47
2024/02/29 03:55:51;;;;;;;;;8.67;8.67;;;;;;;;5077887;27;47529;-47
2024/02/29 03:58:16;;;;;;;;;9.00;8.00;;;;;;;;5081567;27;45643;-46
2024/02/29 04:00:45;;;;;;;;;12.67;10.00;;;;;;;;5080782;27;45299;-49
2024/02/29 04:03:10;;;;;;;;;8.67;6.33;;;;;;;;5075610;27;45337;-47
2024/02/29 04:05:35;;;;;;;;;12.00;9.67;;;;;;;;5076957;27;45371;-49
2024/02/29 04:08:03;;;;;;;;;11.33;11.33;;;;;;;;5083294;27;45854;-49
2024/02/29 04:10:28;;;;;;;;;12.33;10.00;;;;;;;;5083834;27;45465;-50
2024/02/29 04:12:54;;;;;;;;;13.67;11.00;;;;;;;;5077142;27;45256;-48
2024/02/29 04:15:19;;;;;;;;;7.00;7.00;;;;;;;;5081764;27;46217;-46
2024/02/29 04:17:44;;;;;;;;;9.00;9.00;;;;;;;;5076475;27;45317;-49
2024/02/29 04:20:09;;;;;;;;;13.67;13.00;;;;;;;;5065842;27;45310;-49
2024/02/29 04:22:34;;;;;;;;;12.00;9.00;;;;;;;;5080299;27;45440;-46
2024/02/29 04:25:00;;;;;;;;;8.00;7.00;;;;;;;;5080512;27;46825;-50
2024/02/29 04:27:25;;;;;;;;;15.00;11.67;;;;;;;;5080787;27;45364;-47
2024/02/29 04:29:50;;;;;;;;;10.00;9.00;;;;;;;;5081958;27;45763;-47
2024/02/29 04:32:15;;;;;;;;;9.33;8.67;;;;;;;;5076893;27;45455;-47
2024/02/29 04:34:41;;;;;;;;;8.33;7.33;;;;;;;;5082082;27;46169;-48
2024/02/29 04:37:06;;;;;;;;;10.33;10.33;;;;;;;;5079391;27;45329;-49
2024/02/29 04:39:31;;;;;;;;;10.00;9.00;;;;;;;;5078043;27;45285;-47
2024/02/29 04:41:56;;;;;;;;;11.33;9.00;;;;;;;;5079276;27;45689;-50
2024/02/29 04:44:21;;;;;;;;;11.00;9.33;;;;;;;;5073006;27;45419;-50
2024/02/29 04:46:47;;;;;;;;;6.67;6.67;;;;;;;;5083249;27;45416;-50
2024/02/29 04:49:12;;;;;;;;;9.67;7.67;;;;;;;;5072496;27;45282;-47
2024/02/29 04:51:37;;;;;;;;;13.67;9.33;;;;;;;;5077811;27;45377;-46
2024/02/29 04:54:02;;;;;;;;;8.00;8.00;;;;;;;;5075521;27;46351;-51
2024/02/29 04:56:28;;;;;;;;;10.67;9.33;;;;;;;;5076706;27;45381;-48
2024/02/29 04:58:53;;;;;;;;;7.67;7.00;;;;;;;;5074398;27;45272;-47
2024/02/29 05:01:19;;;;;;;;;10.00;8.00;;;;;;;;5081232;27;45409;-48
2024/02/29 05:03:44;;;;;;;;;7.00;7.00;;;;;;;;5078175;27;46349;-48
2024/02/29 05:06:14;;;;;;;;;9.00;7.33;;;;;;;;5077328;27;45949;-50
2024/02/29 05:08:39;;;;;;;;;11.67;9.67;;;;;;;;5078086;27;45404;-47
2024/02/29 05:11:07;;;;;;;;;7.67;7.00;;;;;;;;5076265;27;45265;-49
2024/02/29 05:13:32;;;;;;;;;9.00;7.67;;;;;;;;5076471;27;46488;-48
2024/02/29 05:15:57;;;;;;;;;11.00;7.67;;;;;;;;5075525;27;45468;-46
2024/02/29 05:18:26;;;;;;;;;9.67;8.67;;;;;;;;5078589;27;45416;-46
2024/02/29 05:20:51;;;;;;;;;5.00;3.67;;;;;;;;5089111;27;45316;-46
2024/02/29 05:23:17;;;;;;;;;10.67;6.67;;;;;;;;5081402;27;45754;-47
2024/02/29 05:25:43;;;;;;;;;8.00;6.67;;;;;;;;5084575;27;45369;-49
2024/02/29 05:28:08;;;;;;;;;4.67;4.33;;;;;;;;5079173;27;45337;-48
2024/02/29 05:30:33;;;;;;;;;6.00;6.00;;;;;;;;5082604;27;45345;-47
2024/02/29 05:32:58;;;;;;;;;6.33;6.33;;;;;;;;5081953;27;46363;-47
2024/02/29 05:35:25;;;;;;;;;7.00;5.00;;;;;;;;5086039;27;45291;-50
2024/02/29 05:37:50;;;;;;;;;7.00;4.67;;;;;;;;5078842;27;45354;-50
2024/02/29 05:40:16;;;;;;;;;6.67;5.00;;;;;;;;5078809;27;45890;-50
2024/02/29 05:42:41;;;;;;;;;7.00;5.33;;;;;;;;5079104;27;45357;-50
2024/02/29 05:45:06;;;;;;;;;8.00;5.33;;;;;;;;5088629;27;45357;-49
2024/02/29 05:47:32;;;;;;;;;6.67;5.00;;;;;;;;5079359;27;45541;-49
2024/02/29 05:49:57;;;;;;;;;8.33;7.33;;;;;;;;5083228;27;45258;-51
2024/02/29 05:52:22;;;;;;;;;7.33;5.33;;;;;;;;5079097;27;45427;-48
2024/02/29 05:54:49;;;;;;;;;8.00;8.00;;;;;;;;5079162;27;45444;-49
2024/02/29 05:57:14;;;;;;;;;7.33;5.33;;;;;;;;5071988;27;45472;-51
2024/02/29 05:59:39;;;;;;;;;3.00;3.00;;;;;;;;5074311;27;45354;-49
2024/02/29 06:02:04;;;;;;;;;5.00;5.00;;;;;;;;5079147;27;45725;-49
2024/02/29 06:04:29;;;;;;;;;6.33;5.00;;;;;;;;5087100;27;45666;-47
2024/02/29 06:06:55;;;;;;;;;7.00;6.00;;;;;;;;5083745;27;45362;-48
2024/02/29 06:09:20;;;;;;;;;4.00;3.00;;;;;;;;5079562;27;45510;-47
2024/02/29 06:11:45;;;;;;;;;4.33;3.67;;;;;;;;5082101;27;46399;-50
2024/02/29 06:14:10;;;;;;;;;6.00;6.00;;;;;;;;5079882;27;46370;-49
2024/02/29 06:16:35;;;;;;;;;6.00;6.00;;;;;;;;5068618;27;45387;-46
2024/02/29 06:19:00;;;;;;;;;4.00;4.00;;;;;;;;5074963;27;45384;-48
2024/02/29 06:21:26;;;;;;;;;5.00;5.00;;;;;;;;5082489;27;45685;-47
2024/02/29 06:23:53;;;;;;;;;4.00;4.00;;;;;;;;5087789;27;45721;-48
2024/02/29 06:26:18;;;;;;;;;7.67;6.67;;;;;;;;5078735;27;45290;-47
2024/02/29 06:28:43;;;;;;;;;5.00;5.00;;;;;;;;5075506;27;45813;-47
2024/02/29 06:31:09;;;;;;;;;6.67;6.00;;;;;;;;5076358;27;45667;-47
2024/02/29 06:33:35;;;;;;;;;7.00;5.00;;;;;;;;5081058;27;45568;-50
2024/02/29 06:36:01;;;;;;;;;7.00;6.00;;;;;;;;5076226;27;45546;-46
2024/02/29 06:38:27;;;;;;;;;5.00;5.00;;;;;;;;5072966;27;45493;-48
2024/02/29 06:40:52;;;;;;;;;8.00;6.00;;;;;;;;5074482;27;45584;-50
2024/02/29 06:43:17;;;;;;;;;6.00;6.00;;;;;;;;5076936;27;45345;-48
2024/02/29 06:45:47;;;;;;;;;6.00;4.33;;;;;;;;5079237;27;45476;-47
2024/02/29 06:48:13;;;;;;;;;5.67;5.67;;;;;;;;5071037;28;45501;-49
2024/02/29 06:50:38;;;;;;;;;6.00;6.00;;;;;;;;5079376;27;45389;-46
2024/02/29 06:53:03;;;;;;;;;9.67;7.00;;;;;;;;5076779;28;45869;-46
2024/02/29 06:55:28;;;;;;;;;8.00;8.00;;;;;;;;5072097;27;45260;-49
2024/02/29 06:57:54;;;;;;;;;7.00;6.33;;;;;;;;5078617;27;45368;-49
2024/02/29 07:00:19;;;;;;;;;7.00;7.00;;;;;;;;5074954;28;48124;-48
2024/02/29 07:02:44;;;;;;;;;9.00;9.00;;;;;;;;5078919;27;45463;-51
2024/02/29 07:05:09;;;;;;;;;7.00;7.00;;;;;;;;5076933;28;45551;-48
2024/02/29 07:07:34;;;;;;;;;6.33;5.33;;;;;;;;5075090;27;46545;-50
2024/02/29 07:10:02;;;;;;;;;5.67;5.67;;;;;;;;5074083;27;46133;-51
2024/02/29 07:12:28;;;;;;;;;7.67;7.00;;;;;;;;5078330;27;45428;-47
2024/02/29 07:14:53;;;;;;;;;6.00;6.00;;;;;;;;5076183;27;45308;-48
2024/02/29 07:17:18;;;;;;;;;7.00;6.00;;;;;;;;5077599;27;45444;-47
2024/02/29 07:19:43;;;;;;;;;8.00;8.00;;;;;;;;5082207;27;46325;-50
2024/02/29 07:22:08;;;;;;;;;11.67;9.33;;;;;;;;5077526;27;45870;-51
2024/02/29 07:24:34;;;;;;;;;12.33;10.33;;;;;;;;5081966;27;45421;-51
2024/02/29 07:26:59;;;;;;;;;13.33;12.33;;;;;;;;5085249;27;45390;-51
2024/02/29 07:29:24;;;;;;;;;14.00;13.33;;;;;;;;5082535;27;45388;-48
2024/02/29 07:31:50;;;;;;;;;9.67;9.67;;;;;;;;5082953;27;45892;-49
2024/02/29 07:34:16;;;;;;;;;10.00;10.00;;;;;;;;5081836;27;45415;-49
2024/02/29 07:36:41;;;;;;;;;11.00;10.00;;;;;;;;5080204;27;45827;-51
2024/02/29 07:39:07;;;;;;;;;10.67;10.67;;;;;;;;5079581;27;46501;-49
2024/02/29 07:41:32;;;;;;;;;10.67;10.67;;;;;;;;5079234;27;45453;-49
2024/02/29 07:43:57;;;;;;;;;10.33;10.33;;;;;;;;5078319;27;45512;-47
2024/02/29 07:46:22;;;;;;;;;10.00;9.00;;;;;;;;5084817;27;45382;-48
2024/02/29 07:48:48;;;;;;;;;11.00;10.00;;;;;;;;5083851;27;46260;-47
2024/02/29 07:51:16;;;;;;;;;9.00;8.67;;;;;;;;5083823;27;45436;-49
2024/02/29 07:53:41;;;;;;;;;10.33;9.00;;;;;;;;5085602;27;45188;-48
2024/02/29 07:56:07;;;;;;;;;7.67;6.00;;;;;;;;5078764;27;45341;-49
2024/02/29 07:58:32;;;;;;;;;7.00;7.00;;;;;;;;5079846;27;45492;-47
2024/02/29 08:00:57;;;;;;;;;10.67;9.00;;;;;;;;5080832;27;45887;-49
2024/02/29 08:03:23;;;;;;;;;11.33;9.00;;;;;;;;5075198;27;45488;-49
2024/02/29 08:05:48;;;;;;;;;10.00;8.00;;;;;;;;5083537;27;45228;-49
2024/02/29 08:08:13;;;;;;;;;12.67;11.00;;;;;;;;5078843;27;46197;-50
2024/02/29 08:10:39;;;;;;;;;15.00;11.00;;;;;;;;5078462;27;45398;-48
2024/02/29 08:13:04;;;;;;;;;10.67;9.00;;;;;;;;5085530;27;45336;-51
2024/02/29 08:15:29;;;;;;;;;16.00;10.67;;;;;;;;5092012;27;45353;-48
2024/02/29 08:17:54;;;;;;;;;12.00;10.00;;;;;;;;5076773;27;48557;-51
2024/02/29 08:20:20;;;;;;;;;9.00;7.67;;;;;;;;5083226;27;45433;-49
2024/02/29 08:22:45;;;;;;;;;8.00;8.00;;;;;;;;5074735;28;45400;-50
2024/02/29 08:25:11;;;;;;;;;13.00;9.67;;;;;;;;5088771;27;45595;-48
2024/02/29 08:27:36;;;;;;;;;7.67;7.67;;;;;;;;5072850;27;47110;-48
2024/02/29 08:30:02;;;;;;;;;8.33;8.33;;;;;;;;5065160;28;45533;-47
2024/02/29 08:32:27;;;;;;;;;8.67;6.67;;;;;;;;5078890;28;45302;-49
2024/02/29 08:34:53;;;;;;;;;7.67;7.00;;;;;;;;5078524;27;45544;-47
2024/02/29 08:37:20;;;;;;;;;8.67;7.67;;;;;;;;5078354;27;46543;-51
2024/02/29 08:39:45;;;;;;;;;8.33;6.33;;;;;;;;5080070;27;45347;-48
2024/02/29 08:42:10;;;;;;;;;7.33;7.33;;;;;;;;5081017;28;45636;-51
2024/02/29 08:44:36;;;;;;;;;5.67;4.00;;;;;;;;5081961;27;45286;-50
2024/02/29 08:47:04;;;;;;;;;9.00;7.00;;;;;;;;5082565;27;45602;-49
2024/02/29 08:49:29;;;;;;;;;4.67;4.67;;;;;;;;5081826;27;45683;-48
2024/02/29 08:51:54;;;;;;;;;6.00;3.33;;;;;;;;5080185;27;45349;-48
2024/02/29 08:54:20;;;;;;;;;5.33;4.00;;;;;;;;5072919;27;45272;-50
2024/02/29 08:56:45;;;;;;;;;5.67;4.33;;;;;;;;5082164;27;45429;-51
2024/02/29 08:59:10;;;;;;;;;6.33;6.33;;;;;;;;5081610;27;45308;-49
2024/02/29 09:01:35;;;;;;;;;5.33;5.33;;;;;;;;5070320;27;45251;-47
2024/02/29 09:04:00;;;;;;;;;9.00;8.00;;;;;;;;5081753;27;45491;-48
2024/02/29 09:06:27;;;;;;;;;5.00;5.00;;;;;;;;5079983;27;46707;-51
2024/02/29 09:08:52;;;;;;;;;8.00;6.00;;;;;;;;5081998;27;45304;-47
2024/02/29 09:11:18;;;;;;;;;4.67;3.00;;;;;;;;5075287;27;45283;-47
2024/02/29 09:13:43;;;;;;;;;8.00;6.00;;;;;;;;5081716;27;45541;-52
2024/02/29 09:16:09;;;;;;;;;5.33;5.33;;;;;;;;5075485;27;45487;-48
2024/02/29 09:18:34;;;;;;;;;7.00;5.00;;;;;;;;5081868;27;45406;-47
2024/02/29 09:20:59;;;;;;;;;6.00;4.67;;;;;;;;5075504;27;45313;-47
2024/02/29 09:23:26;;;;;;;;;6.67;6.67;;;;;;;;5081731;27;45289;-47
2024/02/29 09:25:51;;;;;;;;;8.00;6.33;;;;;;;;5075236;27;45281;-48
2024/02/29 09:28:16;;;;;;;;;6.00;6.00;;;;;;;;5079174;28;45412;-48
2024/02/29 09:30:41;;;;;;;;;6.00;6.00;;;;;;;;5080640;27;45361;-47
2024/02/29 09:33:07;;;;;;;;;5.67;5.67;;;;;;;;5074333;27;46025;-48
2024/02/29 09:35:32;;;;;;;;;6.67;5.00;;;;;;;;5073851;27;47307;-48
2024/02/29 09:37:57;;;;;;;;;4.00;4.00;;;;;;;;5075180;27;45292;-47
2024/02/29 09:40:22;;;;;;;;;5.00;4.67;;;;;;;;5072751;28;45630;-47
2024/02/29 09:42:48;;;;;;;;;5.33;5.00;;;;;;;;5083440;27;45341;-50
2024/02/29 09:45:14;;;;;;;;;4.00;4.00;;;;;;;;5082035;27;47891;-47
2024/02/29 09:47:40;;;;;;;;;6.00;5.00;;;;;;;;5082404;27;45326;-49
2024/02/29 09:50:07;;;;;;;;;6.67;6.67;;;;;;;;5082284;27;45275;-47
2024/02/29 09:52:34;;;;;;;;;6.67;6.33;;;;;;;;5088455;27;45416;-47
2024/02/29 09:55:03;;;;;;;;;7.00;5.67;;;;;;;;5097663;27;45303;-49
2024/02/29 09:57:29;;;;;;;;;3.00;3.00;;;;;;;;5088152;27;45475;-47
2024/02/29 09:59:55;;;;;;;;;3.33;3.33;;;;;;;;5086991;27;45372;-46
2024/02/29 10:02:20;;;;;;;;;4.00;2.00;;;;;;;;5079960;27;45427;-48
2024/02/29 10:04:46;;;;;;;;;5.67;5.00;;;;;;;;5073802;27;45918;-47
2024/02/29 10:07:11;;;;;;;;;3.00;3.00;;;;;;;;5072617;28;45477;-47
2024/02/29 10:09:36;;;;;;;;;5.67;4.00;;;;;;;;5071247;28;45483;-47
2024/02/29 10:12:02;;;;;;;;;5.00;5.00;;;;;;;;5072036;27;45289;-49
2024/02/29 10:14:30;;;;;;;;;5.00;3.00;;;;;;;;5070022;28;46520;-47
2024/02/29 10:16:56;;;;;;;;;4.00;4.00;;;;;;;;5074447;27;45289;-47
2024/02/29 10:19:22;;;;;;;;;5.33;4.00;;;;;;;;5074002;27;45272;-49
2024/02/29 10:21:47;;;;;;;;;4.67;4.67;;;;;;;;5072578;28;45382;-48
2024/02/29 10:24:12;;;;;;;;;3.33;3.33;;;;;;;;5080654;27;46228;-46
2024/02/29 10:26:37;;;;;;;;;5.33;4.00;;;;;;;;5080748;28;45254;-49
2024/02/29 10:29:04;;;;;;;;;5.00;4.00;;;;;;;;5080660;27;45307;-47
2024/02/29 10:31:29;;;;;;;;;6.00;4.00;;;;;;;;5077223;28;45305;-49
2024/02/29 10:33:54;;;;;;;;;6.33;6.00;;;;;;;;5075840;28;46195;-48
2024/02/29 10:36:19;;;;;;;;;5.67;4.00;;;;;;;;5077698;27;45409;-47
2024/02/29 10:38:45;;;;;;;;;3.00;3.00;;;;;;;;5068421;28;45481;-47
2024/02/29 10:41:11;;;;;;;;;4.00;4.00;;;;;;;;5080106;27;45337;-48
2024/02/29 10:43:36;;;;;;;;;3.00;3.00;;;;;;;;5079208;28;48155;-48
2024/02/29 10:46:03;;;;;;;;;3.67;3.67;;;;;;;;5069653;27;45390;-47
2024/02/29 10:48:29;;;;;;;;;4.33;4.33;;;;;;;;5068543;28;45299;-48
2024/02/29 10:51:10;;;;;;;;;5.75;5.75;;;;;;;;5077732;28;45512;-50
2024/02/29 10:53:42;;;;;;;;;5.67;4.00;;;;;;;;5080397;27;46434;-47
2024/02/29 10:56:15;;;;;;;;;4.00;4.00;;;;;;;;5083704;27;45487;-47
2024/02/29 10:58:43;;;;;;;;;4.33;4.33;;;;;;;;5078475;27;45306;-49
2024/02/29 11:01:09;;;;;;;;;5.00;5.00;;;;;;;;5080093;27;45626;-49
2024/02/29 11:03:35;;;;;;;;;8.00;7.00;;;;;;;;5083532;27;46222;-46
2024/02/29 11:06:01;;;;;;;;;4.00;4.00;;;;;;;;5084776;27;45503;-49
2024/02/29 11:08:26;;;;;;;;;5.00;4.67;;;;;;;;5084900;27;45316;-48
2024/02/29 11:10:55;;;;;;;;;6.67;5.33;;;;;;;;5083449;27;45300;-47
2024/02/29 11:13:21;;;;;;;;;5.00;5.00;;;;;;;;5084425;27;46280;-49
2024/02/29 11:15:49;;;;;;;;;6.33;6.00;;;;;;;;5089083;27;45258;-48
2024/02/29 11:18:23;;;;;;;;;6.33;5.67;;;;;;;;5084468;27;45223;-47
2024/02/29 11:21:00;;;;;;;;;6.00;6.00;;;;;;;;5080079;27;45215;-47
2024/02/29 11:23:28;;;;;;;;;3.67;2.00;;;;;;;;5065770;27;46946;-48
2024/02/29 11:25:54;;;;;;;;;5.00;5.00;;;;;;;;5087475;27;45523;-47
2024/02/29 11:28:19;;;;;;;;;7.33;5.00;;;;;;;;5086412;27;45409;-48
2024/02/29 11:30:48;;;;;;;;;7.00;6.00;;;;;;;;5087378;27;45317;-47
2024/02/29 11:33:13;;;;;;;;;11.33;6.67;;;;;;;;5087116;27;46544;-47
2024/02/29 11:35:38;;;;;;;;;5.33;5.33;;;;;;;;5087709;27;45361;-50
2024/02/29 11:38:05;;;;;;;;;7.00;7.00;;;;;;;;5087806;27;45410;-50
2024/02/29 11:40:34;;;;;;;;;8.00;5.33;;;;;;;;5087633;27;45495;-48
2024/02/29 11:43:01;;;;;;;;;4.00;4.00;;;;;;;;5089104;27;46184;-50
2024/02/29 11:45:26;;;;;;;;;7.33;6.00;;;;;;;;5087435;27;45428;-48
2024/02/29 11:47:52;;;;;;;;;5.00;5.00;;;;;;;;5090095;27;45345;-47
2024/02/29 11:50:17;;;;;;;;;6.33;6.00;;;;;;;;5081703;27;45210;-48
2024/02/29 11:52:42;;;;;;;;;7.00;6.00;;;;;;;;5079980;27;45172;-47
2024/02/29 11:55:08;;;;;;;;;6.33;6.33;;;;;;;;5079215;27;45390;-48
2024/02/29 11:57:33;;;;;;;;;6.33;5.00;;;;;;;;5080386;27;45306;-48
2024/02/29 11:59:58;;;;;;;;;8.00;7.00;;;;;;;;5078158;27;45558;-48
2024/02/29 12:02:23;;;;;;;;;7.00;7.00;;;;;;;;5075042;27;45394;-49
2024/02/29 12:04:48;;;;;;;;;8.00;7.00;;;;;;;;5076434;27;45349;-48
2024/02/29 12:07:14;;;;;;;;;6.67;6.67;;;;;;;;5082498;27;45334;-50
2024/02/29 12:09:39;;;;;;;;;5.33;5.33;;;;;;;;5087692;27;45286;-49
2024/02/29 12:12:04;;;;;;;;;9.00;7.33;;;;;;;;5083703;27;48476;-48
2024/02/29 12:14:30;;;;;;;;;6.33;6.33;;;;;;;;5085650;27;45325;-49
2024/02/29 12:16:56;;;;;;;;;6.00;6.00;;;;;;;;5085623;27;45329;-51
2024/02/29 12:19:22;;;;;;;;;6.00;6.00;;;;;;;;5085259;27;45904;-51
2024/02/29 12:21:47;;;;;;;;;9.00;7.00;;;;;;;;5085145;27;46293;-48
2024/02/29 12:24:13;;;;;;;;;6.00;5.67;;;;;;;;5086452;27;45365;-48
2024/02/29 12:26:40;;;;;;;;;4.67;4.67;;;;;;;;5080980;27;45448;-47
2024/02/29 12:29:06;;;;;;;;;8.33;7.33;;;;;;;;5085111;27;45408;-46
2024/02/29 12:31:31;;;;;;;;;6.33;6.33;;;;;;;;5078544;27;46370;-47
2024/02/29 12:33:59;;;;;;;;;6.00;6.00;;;;;;;;5084073;27;45325;-48
2024/02/29 12:36:24;;;;;;;;;6.33;5.33;;;;;;;;5085949;27;45499;-48
2024/02/29 12:38:49;;;;;;;;;6.67;6.00;;;;;;;;5086363;27;45471;-49
2024/02/29 12:41:14;;;;;;;;;6.00;6.00;;;;;;;;5085717;27;46123;-48
2024/02/29 12:43:49;;;;;;;;;5.00;5.00;;;;;;;;5086104;27;45360;-48
2024/02/29 12:46:15;;;;;;;;;7.00;5.67;;;;;;;;5085556;27;45375;-48
2024/02/29 12:48:41;;;;;;;;;5.67;4.00;;;;;;;;5085435;27;45333;-47
2024/02/29 12:51:06;;;;;;;;;6.00;6.00;;;;;;;;5079742;27;46084;-48
2024/02/29 12:53:32;;;;;;;;;6.00;6.00;;;;;;;;5072598;28;45374;-47
2024/02/29 12:55:57;;;;;;;;;4.33;4.33;;;;;;;;5079243;27;45275;-48
2024/02/29 12:58:23;;;;;;;;;4.67;4.33;;;;;;;;5078629;27;45299;-48
2024/02/29 13:00:48;;;;;;;;;5.00;5.00;;;;;;;;5078202;27;45475;-47
2024/02/29 13:03:13;;;;;;;;;4.00;3.00;;;;;;;;5072372;27;45600;-51
2024/02/29 13:05:38;;;;;;;;;5.00;5.00;;;;;;;;5080598;27;45434;-48
2024/02/29 13:08:06;;;;;;;;;5.00;5.00;;;;;;;;5085939;27;45396;-50
2024/02/29 13:10:31;;;;;;;;;6.00;5.00;;;;;;;;5085040;27;46390;-47
2024/02/29 13:12:56;;;;;;;;;5.00;5.00;;;;;;;;5086144;27;45329;-51
2024/02/29 13:15:21;;;;;;;;;6.00;6.00;;;;;;;;5084675;27;45464;-49
2024/02/29 13:17:47;;;;;;;;;6.67;6.67;;;;;;;;5087278;27;45429;-50
2024/02/29 13:20:12;;;;;;;;;8.67;7.00;;;;;;;;5085085;27;46415;-48
2024/02/29 13:22:40;;;;;;;;;6.00;6.00;;;;;;;;5086990;27;45225;-49
2024/02/29 13:25:06;;;;;;;;;6.00;4.33;;;;;;;;5086610;27;45502;-47
2024/02/29 13:27:31;;;;;;;;;10.00;6.00;;;;;;;;5085023;27;45573;-49
2024/02/29 13:29:56;;;;;;;;;5.67;5.00;;;;;;;;5088515;27;45558;-50
2024/02/29 13:32:22;;;;;;;;;8.67;4.67;;;;;;;;5088489;27;45565;-48
2024/02/29 13:34:47;;;;;;;;;4.33;4.33;;;;;;;;5088771;27;45677;-49
2024/02/29 13:37:13;;;;;;;;;6.67;5.67;;;;;;;;5089776;27;45447;-49
2024/02/29 13:39:38;;;;;;;;;5.33;5.00;;;;;;;;5088589;27;45416;-50
2024/02/29 13:42:05;;;;;;;;;7.00;5.00;;;;;;;;5089702;27;45299;-48
2024/02/29 13:44:30;;;;;;;;;7.67;6.00;;;;;;;;5088786;27;45305;-47
2024/02/29 13:46:56;;;;;;;;;4.33;4.33;;;;;;;;5090845;27;45144;-48
2024/02/29 13:49:21;;;;;;;;;6.33;5.67;;;;;;;;5089291;27;45302;-51
2024/02/29 13:51:46;;;;;;;;;6.67;5.00;;;;;;;;5090777;27;45246;-49
2024/02/29 13:54:12;;;;;;;;;3.00;3.00;;;;;;;;5088614;27;45179;-48
2024/02/29 13:56:37;;;;;;;;;6.67;5.67;;;;;;;;5091357;27;45250;-52
2024/02/29 13:59:03;;;;;;;;;5.33;5.33;;;;;;;;5089617;27;45309;-47
2024/02/29 14:01:28;;;;;;;;;6.00;4.67;;;;;;;;5090994;27;45261;-46
2024/02/29 14:03:53;;;;;;;;;7.00;5.00;;;;;;;;5084076;27;45286;-47
2024/02/29 14:06:18;;;;;;;;;6.00;6.00;;;;;;;;5085165;27;45397;-51
2024/02/29 14:08:44;;;;;;;;;1.33;0.00;;;;;;;;5085587;27;45643;-51
2024/02/29 14:11:10;;;;;;;;;6.00;5.00;;;;;;;;5088057;27;45428;-48
2024/02/29 14:13:35;;;;;;;;;4.00;4.00;;;;;;;;5085492;27;45462;-47
2024/02/29 14:16:01;;;;;;;;;6.00;4.00;;;;;;;;5085398;27;45320;-50
2024/02/29 14:18:26;;;;;;;;;7.67;4.33;;;;;;;;5079917;27;45463;-49
2024/02/29 14:20:52;;;;;;;;;5.67;3.00;;;;;;;;5090027;27;45401;-47
2024/02/29 14:23:19;;;;;;;;;4.33;4.33;;;;;;;;5085838;27;45427;-50
2024/02/29 14:25:44;;;;;;;;;6.33;5.00;;;;;;;;5090270;27;45335;-50
2024/02/29 14:28:10;;;;;;;;;5.33;5.33;;;;;;;;5085847;27;45651;-48
2024/02/29 14:30:36;;;;;;;;;5.33;5.33;;;;;;;;5085271;27;45373;-49